Columbus Metropolitan Airport Columbus US
ICAO: KCSG
IATA: CSG
Category: Medium
Scheduled Services: Yes

Elevation: 397 ft
TransAlt. 18000 ft.

Airport Communications:
ATLANTA APP/DEP:125.5
ATIS:127.75
CTAF:120.1
GND:121.9
MACON RDO:122.65
TWR:120.1
UNICOM:122.95

KCSG Zoom In..

If Map Doesn't Load, Click Here

Runways:

(A) RW 06 length 6997 ft width 150 ft
ILS 110.30 / hdg 56

(B) RW 13 length 3997 ft width 150 ft
---- / hdg 129

(C) RW 24 length 6997 ft width 150 ft
---- / hdg 236

(D) RW 31 length 3997 ft width 150 ft
---- / hdg 309

Location; KCSG
Day. 24 / Time. 05.51 Zulu
* Altimeter: 30.04
* Temperature: 24° c. 75.2°f.
* Wind from: 000° Speed 00 kn.
Dewpoint: 22° c.
Visibility: 10 Statute Miles.
Clouds: Overcast 5000 ft.

KCSG 240551Z AUTO 00000KT 10SM OVC050 24/22 A3004 RMK AO2 SLP165 60000 T02440222 10294 20244 50003


Wind - Calm.

 
 
jpsmedia.com for Web Design worldairports.se 2018   terms of use